createdAt,value
2022-12-26T00:01:06.625Z,100842.75
2022-12-26T00:03:33.485Z,100843.63
2022-12-26T00:06:03.064Z,100844.66
2022-12-26T00:08:32.167Z,100846.47
2022-12-26T00:11:05.989Z,100848.28
2022-12-26T00:13:39.426Z,100837.75
2022-12-26T00:16:09.270Z,100841.97
2022-12-26T00:18:35.958Z,100841.91
2022-12-26T00:21:05.962Z,100839.25
2022-12-26T00:23:35.669Z,100833.09
2022-12-26T00:26:05.123Z,100836.44
2022-12-26T00:28:34.759Z,100837.97
2022-12-26T00:31:08.390Z,100833.38
2022-12-26T00:33:35.558Z,100826.09
2022-12-26T00:36:06.255Z,100825.81
2022-12-26T00:38:33.000Z,100823.94
2022-12-26T00:40:59.806Z,100831.50
2022-12-26T00:43:26.401Z,100840.78
2022-12-26T00:45:53.120Z,100843.22
2022-12-26T00:48:22.593Z,100853.66
2022-12-26T00:50:51.635Z,100855.31
2022-12-26T00:53:18.516Z,100855.09
2022-12-26T00:55:45.328Z,100857.47
2022-12-26T00:58:11.932Z,100853.88
2022-12-26T01:00:38.755Z,100852.97
2022-12-26T01:03:08.134Z,100847.66
2022-12-26T01:05:34.985Z,100838.78
2022-12-26T01:08:21.850Z,100835.25
2022-12-26T01:10:49.702Z,100819.47
2022-12-26T01:13:16.401Z,100812.28
2022-12-26T01:15:50.077Z,100824.31
2022-12-26T01:18:16.701Z,100829.44
2022-12-26T01:20:45.689Z,100831.91
2022-12-26T01:23:12.388Z,100836.06
2022-12-26T01:26:16.783Z,100835.72
2022-12-26T01:28:26.551Z,100825.09
2022-12-26T01:30:53.250Z,100818.16
2022-12-26T01:33:19.921Z,100831.97
2022-12-26T01:35:50.393Z,100831.97
2022-12-26T01:38:17.262Z,100826.81
2022-12-26T01:40:44.084Z,100823.47
2022-12-26T01:43:14.736Z,100827.91
2022-12-26T01:45:46.565Z,100819.16
2022-12-26T01:48:16.024Z,100814.72
2022-12-26T01:50:56.136Z,100813.53
2022-12-26T01:53:25.936Z,100815.00
2022-12-26T01:55:58.093Z,100801.72
2022-12-26T01:58:27.206Z,100799.88
2022-12-26T02:00:53.909Z,100804.06
2022-12-26T02:03:39.340Z,100787.53
2022-12-26T02:06:06.857Z,100809.00
2022-12-26T02:08:34.640Z,100804.50
2022-12-26T02:11:08.063Z,100796.50
2022-12-26T02:13:36.034Z,100797.16
2022-12-26T02:16:07.200Z,100807.28
2022-12-26T02:18:33.978Z,100806.03
2022-12-26T02:21:00.876Z,100812.81
2022-12-26T02:23:39.283Z,100813.59
2022-12-26T02:26:18.471Z,100804.84
2022-12-26T02:28:47.674Z,100797.75
2022-12-26T02:31:14.390Z,100800.91
2022-12-26T02:33:52.567Z,100799.00
2022-12-26T02:36:22.349Z,100788.44
2022-12-26T02:39:44.650Z,100781.47
2022-12-26T02:41:58.929Z,100757.13
2022-12-26T02:44:47.830Z,100751.22
2022-12-26T02:47:23.580Z,100740.91
2022-12-26T02:50:08.967Z,100747.66
2022-12-26T02:53:20.402Z,100744.19
2022-12-26T02:56:08.808Z,100764.22
2022-12-26T02:59:17.713Z,100767.50
2022-12-26T03:02:04.305Z,100772.72
2022-12-26T03:04:50.940Z,100779.75
2022-12-26T03:07:49.515Z,100759.78
2022-12-26T03:10:35.668Z,100764.91
2022-12-26T03:13:12.438Z,100776.88
2022-12-26T03:16:00.258Z,100785.34
2022-12-26T03:18:58.097Z,100777.53
2022-12-26T03:21:14.420Z,100769.78
2022-12-26T03:23:41.816Z,100779.34
2022-12-26T03:26:28.530Z,100775.84
2022-12-26T03:29:18.847Z,100774.22
2022-12-26T03:31:45.922Z,100779.03
2022-12-26T03:34:17.815Z,100783.25
2022-12-26T03:36:44.573Z,100779.72
2022-12-26T03:39:48.815Z,100789.13
2022-12-26T03:42:46.561Z,100796.59
2022-12-26T03:45:38.168Z,100807.09
2022-12-26T03:48:35.911Z,100789.06
2022-12-26T03:51:29.832Z,100788.03
2022-12-26T03:54:41.740Z,100790.53
2022-12-26T03:57:28.261Z,100797.41
2022-12-26T04:00:21.310Z,100794.97
2022-12-26T04:03:07.430Z,100793.31
2022-12-26T04:05:53.973Z,100805.75
2022-12-26T04:08:43.918Z,100818.19
2022-12-26T04:11:29.931Z,100820.19
2022-12-26T04:14:18.287Z,100814.88
2022-12-26T04:17:05.276Z,100815.59
2022-12-26T04:19:50.858Z,100808.41
2022-12-26T04:22:44.676Z,100816.41
2022-12-26T04:25:51.449Z,100817.19
2022-12-26T04:28:40.462Z,100804.22
2022-12-26T04:31:27.052Z,100813.72
2022-12-26T04:34:15.197Z,100813.72
2022-12-26T04:37:02.292Z,100812.19
2022-12-26T04:39:48.574Z,100801.63
2022-12-26T04:42:33.989Z,100811.16
2022-12-26T04:45:00.679Z,100809.16
2022-12-26T04:47:30.482Z,100790.03
2022-12-26T04:50:12.121Z,100795.25
2022-12-26T04:53:00.806Z,100793.06
2022-12-26T04:55:28.610Z,100792.28
2022-12-26T04:57:55.510Z,100796.16
2022-12-26T05:00:28.327Z,100797.63
2022-12-26T05:03:18.701Z,100787.75
2022-12-26T05:06:05.687Z,100787.50
2022-12-26T05:08:57.408Z,100798.41
2022-12-26T05:11:24.176Z,100803.06
2022-12-26T05:13:56.785Z,100802.28
2022-12-26T05:16:42.614Z,100799.44
2022-12-26T05:19:31.169Z,100808.00
2022-12-26T05:22:16.748Z,100791.47
2022-12-26T05:25:02.116Z,100794.28
2022-12-26T05:27:58.674Z,100779.19
2022-12-26T05:30:25.760Z,100774.97
2022-12-26T05:33:11.447Z,100767.22
2022-12-26T05:35:38.165Z,100779.56
2022-12-26T05:38:04.756Z,100781.44
2022-12-26T05:40:33.977Z,100771.50
2022-12-26T05:43:04.898Z,100770.03
2022-12-26T05:45:31.978Z,100776.25
2022-12-26T05:48:01.949Z,100780.44
2022-12-26T05:50:31.081Z,100777.06
2022-12-26T05:52:58.177Z,100777.94
2022-12-26T05:55:25.133Z,100778.84
2022-12-26T05:57:51.856Z,100772.03
2022-12-26T06:00:23.787Z,100772.03
2022-12-26T06:02:50.977Z,100785.06
2022-12-26T06:05:17.636Z,100780.75
2022-12-26T06:07:47.009Z,100787.69
2022-12-26T06:10:13.752Z,100778.97
2022-12-26T06:12:40.418Z,100782.31
2022-12-26T06:15:09.688Z,100763.25
2022-12-26T06:17:36.297Z,100769.97
2022-12-26T06:20:05.479Z,100771.41
2022-12-26T06:22:32.073Z,100760.44
2022-12-26T06:25:03.617Z,100765.00
2022-12-26T06:27:30.225Z,100764.84
2022-12-26T06:30:04.408Z,100765.91
2022-12-26T06:32:31.204Z,100772.13
2022-12-26T06:35:00.365Z,100777.34
2022-12-26T06:37:29.525Z,100779.13
2022-12-26T06:39:56.216Z,100768.63
2022-12-26T06:42:22.806Z,100767.19
2022-12-26T06:44:49.427Z,100760.66
2022-12-26T06:47:16.049Z,100761.84
2022-12-26T06:49:42.653Z,100763.88
2022-12-26T06:52:11.505Z,100765.00
2022-12-26T06:54:38.282Z,100760.03
2022-12-26T06:57:04.989Z,100758.13
2022-12-26T06:59:31.555Z,100763.34
2022-12-26T07:01:58.584Z,100774.06
2022-12-26T07:04:30.311Z,100768.28
2022-12-26T07:06:57.082Z,100776.94
2022-12-26T07:09:28.388Z,100782.88
2022-12-26T07:11:58.197Z,100780.66
2022-12-26T07:14:27.159Z,100793.88
2022-12-26T07:16:56.019Z,100792.38
2022-12-26T07:19:25.183Z,100790.69
2022-12-26T07:21:51.943Z,100796.00
2022-12-26T07:24:20.092Z,100792.03
2022-12-26T07:26:47.070Z,100797.34
2022-12-26T07:29:16.576Z,100796.22
2022-12-26T07:31:43.254Z,100799.25
2022-12-26T07:34:10.112Z,100800.91
2022-12-26T07:36:36.712Z,100799.84
2022-12-26T07:39:03.813Z,100799.19
2022-12-26T07:41:49.233Z,100802.97
2022-12-26T07:44:15.819Z,100809.31
2022-12-26T07:46:42.450Z,100807.09
2022-12-26T07:49:12.176Z,100805.59
2022-12-26T07:51:38.933Z,100803.03
2022-12-26T07:54:11.358Z,100801.59
2022-12-26T07:56:42.026Z,100806.31
2022-12-26T07:59:14.534Z,100801.56
2022-12-26T08:01:42.215Z,100800.13
2022-12-26T08:04:12.696Z,100803.94
2022-12-26T08:06:39.362Z,100790.25
2022-12-26T08:09:07.975Z,100787.81
2022-12-26T08:11:35.596Z,100794.09
2022-12-26T08:14:05.109Z,100808.13
2022-12-26T08:16:34.389Z,100806.41
2022-12-26T08:19:02.831Z,100807.44
2022-12-26T08:21:31.617Z,100819.50
2022-12-26T08:23:58.250Z,100818.88
2022-12-26T08:26:24.848Z,100818.94
2022-12-26T08:28:55.297Z,100819.84
2022-12-26T08:31:22.263Z,100825.50
2022-12-26T08:33:49.135Z,100824.00
2022-12-26T08:36:19.344Z,100819.81
2022-12-26T08:38:46.020Z,100828.72
2022-12-26T08:41:12.711Z,100833.19
2022-12-26T08:44:24.485Z,100828.84
2022-12-26T08:46:31.150Z,100823.38
2022-12-26T08:48:57.778Z,100827.34
2022-12-26T08:51:24.914Z,100827.69
2022-12-26T08:53:54.696Z,100827.22
2022-12-26T08:56:22.708Z,100831.09
2022-12-26T08:58:49.340Z,100833.28
2022-12-26T09:01:17.358Z,100839.34
2022-12-26T09:03:46.245Z,100834.09
2022-12-26T09:06:18.264Z,100826.66
2022-12-26T09:08:45.001Z,100832.50
2022-12-26T09:11:15.819Z,100842.38
2022-12-26T09:13:42.797Z,100837.50
2022-12-26T09:16:13.731Z,100834.16
2022-12-26T09:18:40.490Z,100840.69
2022-12-26T09:21:09.048Z,100829.91
2022-12-26T09:23:36.133Z,100830.78
2022-12-26T09:26:09.212Z,100835.56
2022-12-26T09:28:35.980Z,100840.84
2022-12-26T09:31:03.309Z,100835.09
2022-12-26T09:33:33.504Z,100838.91
2022-12-26T09:36:08.250Z,100838.63
2022-12-26T09:38:37.786Z,100848.69
2022-12-26T09:41:04.407Z,100838.47
2022-12-26T09:43:50.263Z,100842.97
2022-12-26T09:46:21.833Z,100838.16
2022-12-26T09:48:54.546Z,100838.69
2022-12-26T09:51:21.248Z,100836.53
2022-12-26T09:53:47.950Z,100841.97
2022-12-26T09:57:01.127Z,100832.59
2022-12-26T09:59:16.069Z,100838.00
2022-12-26T10:01:45.383Z,100839.91
2022-12-26T10:04:34.602Z,100844.38
2022-12-26T10:07:13.579Z,100845.47
2022-12-26T10:09:43.508Z,100848.19
2022-12-26T10:12:16.296Z,100853.53
2022-12-26T10:15:01.679Z,100851.00
2022-12-26T10:17:31.278Z,100839.63
2022-12-26T10:20:00.613Z,100841.41
2022-12-26T10:22:36.802Z,100833.81
2022-12-26T10:25:06.224Z,100822.81
2022-12-26T10:27:34.758Z,100821.22
2022-12-26T10:30:05.492Z,100820.25
2022-12-26T10:32:40.154Z,100811.22
2022-12-26T10:35:36.351Z,100802.81
2022-12-26T10:38:27.782Z,100792.34
2022-12-26T10:40:55.216Z,100787.97
2022-12-26T10:43:28.669Z,100801.41
2022-12-26T10:45:58.328Z,100792.88
2022-12-26T10:48:25.645Z,100786.06
2022-12-26T10:50:53.852Z,100781.88
2022-12-26T10:53:20.503Z,100788.09
2022-12-26T10:55:47.268Z,100792.63
2022-12-26T10:58:20.619Z,100778.16
2022-12-26T11:00:49.728Z,100771.38
2022-12-26T11:03:18.736Z,100784.72
2022-12-26T11:06:08.974Z,100776.81
2022-12-26T11:08:43.847Z,100770.53
2022-12-26T11:11:14.833Z,100764.25
2022-12-26T11:13:49.439Z,100761.66
2022-12-26T11:16:23.587Z,100749.28
2022-12-26T11:18:51.069Z,100746.00
2022-12-26T11:21:17.748Z,100746.16
2022-12-26T11:23:45.013Z,100755.28
2022-12-26T11:26:22.593Z,100751.19
2022-12-26T11:28:58.066Z,100745.88
2022-12-26T11:31:32.186Z,100740.09
2022-12-26T11:34:01.802Z,100741.28
2022-12-26T11:36:29.218Z,100745.03
2022-12-26T11:38:57.671Z,100737.34
2022-12-26T11:41:33.472Z,100740.66
2022-12-26T11:44:02.430Z,100752.34
2022-12-26T11:46:35.642Z,100738.78
2022-12-26T11:49:05.004Z,100740.66
2022-12-26T11:51:42.078Z,100746.72
2022-12-26T11:54:20.928Z,100741.31
2022-12-26T11:56:47.912Z,100745.00
2022-12-26T11:59:41.057Z,100736.41
2022-12-26T12:02:13.544Z,100732.16
2022-12-26T12:04:42.748Z,100736.97
2022-12-26T12:07:15.345Z,100732.47
2022-12-26T12:09:54.016Z,100724.50
2022-12-26T12:12:33.015Z,100726.94
2022-12-26T12:15:00.229Z,100716.53
2022-12-26T12:17:45.805Z,100718.09
2022-12-26T12:20:27.715Z,100723.88
2022-12-26T12:22:56.854Z,100725.53
2022-12-26T12:25:23.624Z,100728.19
2022-12-26T12:27:59.655Z,100722.53
2022-12-26T12:30:41.630Z,100721.41
2022-12-26T12:33:22.914Z,100715.97
2022-12-26T12:36:08.248Z,100720.97
2022-12-26T12:38:56.839Z,100725.03
2022-12-26T12:41:38.924Z,100719.59
2022-12-26T12:44:19.588Z,100710.16
2022-12-26T12:46:54.446Z,100707.13
2022-12-26T12:49:24.692Z,100698.13
2022-12-26T12:52:09.498Z,100699.88
2022-12-26T12:54:42.151Z,100685.31
2022-12-26T12:57:27.901Z,100691.19
2022-12-26T13:00:00.722Z,100691.75
2022-12-26T13:02:32.812Z,100685.00
2022-12-26T13:05:05.047Z,100688.53
2022-12-26T13:07:33.644Z,100696.25
2022-12-26T13:10:04.689Z,100686.75
2022-12-26T13:12:35.215Z,100686.00
2022-12-26T13:15:03.033Z,100695.34
2022-12-26T13:17:31.847Z,100692.03
2022-12-26T13:20:01.803Z,100694.56
2022-12-26T13:22:54.402Z,100694.75
2022-12-26T13:25:21.207Z,100693.13
2022-12-26T13:27:48.620Z,100694.31
2022-12-26T13:30:17.702Z,100698.00
2022-12-26T13:32:46.728Z,100704.72
2022-12-26T13:35:32.432Z,100707.09
2022-12-26T13:38:04.164Z,100699.38
2022-12-26T13:40:31.253Z,100699.88
2022-12-26T13:43:19.527Z,100703.31
2022-12-26T13:45:50.462Z,100709.44
2022-12-26T13:48:17.112Z,100690.19
2022-12-26T13:50:55.249Z,100703.97
2022-12-26T13:53:25.676Z,100711.72
2022-12-26T13:55:53.534Z,100709.09
2022-12-26T13:58:20.130Z,100702.94
2022-12-26T14:00:47.253Z,100701.19
2022-12-26T14:03:21.035Z,100713.22
2022-12-26T14:05:58.091Z,100709.53
2022-12-26T14:08:33.208Z,100713.09
2022-12-26T14:11:13.371Z,100715.47
2022-12-26T14:13:52.143Z,100712.75
2022-12-26T14:16:44.245Z,100709.00
2022-12-26T14:19:15.482Z,100717.28
2022-12-26T14:21:56.669Z,100715.44
2022-12-26T14:24:31.449Z,100722.03
2022-12-26T14:27:19.706Z,100728.78
2022-12-26T14:29:46.816Z,100736.81
2022-12-26T14:32:22.539Z,100732.09
2022-12-26T14:35:00.311Z,100728.38
2022-12-26T14:37:32.950Z,100727.06
2022-12-26T14:40:17.614Z,100723.25
2022-12-26T14:43:12.868Z,100723.13
2022-12-26T14:45:42.657Z,100725.47
2022-12-26T14:48:29.586Z,100731.94
2022-12-26T14:51:02.700Z,100728.97
2022-12-26T14:53:33.659Z,100733.91
2022-12-26T14:56:24.929Z,100723.16
2022-12-26T14:58:55.431Z,100724.78
2022-12-26T15:01:22.133Z,100717.69
2022-12-26T15:03:51.955Z,100720.00
2022-12-26T15:06:18.681Z,100719.75
2022-12-26T15:08:45.393Z,100722.19
2022-12-26T15:11:30.854Z,100717.72
2022-12-26T15:14:00.356Z,100720.91
2022-12-26T15:16:49.493Z,100714.84
2022-12-26T15:19:35.026Z,100712.34
2022-12-26T15:22:10.091Z,100699.41
2022-12-26T15:28:01.978Z,100696.31
2022-12-26T15:30:38.189Z,100691.84
2022-12-26T15:33:10.177Z,100695.16
2022-12-26T15:35:43.661Z,100697.63
2022-12-26T15:38:25.622Z,100688.03
2022-12-26T15:40:58.328Z,100688.69
2022-12-26T15:43:30.848Z,100686.13
2022-12-26T15:46:00.507Z,100691.28
2022-12-26T15:48:28.022Z,100691.19
2022-12-26T15:50:58.001Z,100691.06
2022-12-26T15:53:39.893Z,100693.56
2022-12-26T15:56:27.205Z,100689.75
2022-12-26T15:58:57.210Z,100698.25
2022-12-26T16:01:34.324Z,100702.88
2022-12-26T16:04:04.134Z,100699.41
2022-12-26T16:06:37.071Z,100698.53
2022-12-26T16:09:09.884Z,100690.63
2022-12-26T16:11:46.407Z,100696.63
2022-12-26T16:14:39.403Z,100691.31
2022-12-26T16:17:09.809Z,100691.22
2022-12-26T16:19:36.554Z,100684.97
2022-12-26T16:22:22.807Z,100683.06
2022-12-26T16:24:51.633Z,100683.13
2022-12-26T16:27:21.676Z,100684.88
2022-12-26T16:29:51.644Z,100682.44
2022-12-26T16:32:21.668Z,100691.72
2022-12-26T16:34:48.693Z,100688.97
2022-12-26T16:37:22.811Z,100690.94
2022-12-26T16:40:08.440Z,100691.00
2022-12-26T16:42:37.427Z,100691.72
2022-12-26T16:45:04.121Z,100676.50
2022-12-26T16:47:31.553Z,100679.66
2022-12-26T16:50:01.193Z,100687.44
2022-12-26T16:52:33.938Z,100680.84
2022-12-26T16:55:19.371Z,100669.16
2022-12-26T16:57:46.033Z,100686.69
2022-12-26T17:00:21.779Z,100691.72
2022-12-26T17:02:49.063Z,100694.16
2022-12-26T17:05:23.091Z,100689.66
2022-12-26T17:07:52.901Z,100688.09
2022-12-26T17:10:21.102Z,100690.75
2022-12-26T17:12:48.201Z,100689.13
2022-12-26T17:15:19.375Z,100684.09
2022-12-26T17:17:46.356Z,100684.22
2022-12-26T17:20:36.317Z,100680.00
2022-12-26T17:23:22.835Z,100676.31
2022-12-26T17:25:51.008Z,100675.34
2022-12-26T17:28:17.987Z,100682.16
2022-12-26T17:30:50.449Z,100686.31
2022-12-26T17:33:23.464Z,100686.44
2022-12-26T17:38:40.405Z,100690.31
2022-12-26T17:41:07.148Z,100679.75
2022-12-26T17:43:37.610Z,100670.25
2022-12-26T17:46:04.943Z,100671.91
2022-12-26T17:48:31.927Z,100670.28
2022-12-26T17:51:00.761Z,100670.38
2022-12-26T17:53:33.809Z,100666.81
2022-12-26T17:56:03.564Z,100659.75
2022-12-26T17:58:32.700Z,100668.03
2022-12-26T18:00:59.669Z,100665.38
2022-12-26T18:03:31.016Z,100661.69
2022-12-26T18:05:57.796Z,100661.75
2022-12-26T18:08:28.535Z,100652.25
2022-12-26T18:10:55.411Z,100668.69
2022-12-26T18:13:22.013Z,100662.19
2022-12-26T18:15:48.764Z,100659.50
2022-12-26T18:18:40.851Z,100649.66
2022-12-26T18:21:20.042Z,100650.63
2022-12-26T18:23:49.136Z,100638.63
2022-12-26T18:26:20.700Z,100628.50
2022-12-26T18:28:47.465Z,100629.38
2022-12-26T18:31:14.439Z,100626.72
2022-12-26T18:33:43.520Z,100630.41
2022-12-26T18:36:11.760Z,100629.69
2022-12-26T18:38:38.426Z,100627.00
2022-12-26T18:41:05.336Z,100632.03
2022-12-26T18:43:31.980Z,100637.34
2022-12-26T18:45:58.656Z,100634.69
2022-12-26T18:48:25.433Z,100629.44
2022-12-26T18:50:54.812Z,100616.72
2022-12-26T18:53:23.961Z,100615.91
2022-12-26T18:55:53.041Z,100617.94
2022-12-26T18:58:21.933Z,100604.56
2022-12-26T19:00:51.313Z,100604.72
2022-12-26T19:03:18.130Z,100615.34
2022-12-26T19:05:44.942Z,100618.97
2022-12-26T19:08:14.455Z,100620.53
2022-12-26T19:10:42.185Z,100606.63
2022-12-26T19:13:11.255Z,100612.75
2022-12-26T19:15:38.077Z,100618.13
2022-12-26T19:18:07.164Z,100610.38
2022-12-26T19:20:36.606Z,100613.84
2022-12-26T19:23:10.182Z,100619.13
2022-12-26T19:25:39.329Z,100617.25
2022-12-26T19:28:06.722Z,100615.66
2022-12-26T19:30:38.447Z,100620.66
2022-12-26T19:33:07.622Z,100625.06
2022-12-26T19:35:35.651Z,100621.03
2022-12-26T19:38:02.398Z,100621.91
2022-12-26T19:40:29.244Z,100629.81
2022-12-26T19:42:55.943Z,100614.56
2022-12-26T19:45:24.685Z,100624.84
2022-12-26T19:47:51.425Z,100613.69
2022-12-26T19:50:20.494Z,100620.97
2022-12-26T19:52:47.523Z,100621.53
2022-12-26T19:55:17.059Z,100612.97
2022-12-26T19:57:43.641Z,100627.88
2022-12-26T20:00:13.135Z,100624.28
2022-12-26T20:02:49.898Z,100645.91
2022-12-26T20:05:16.641Z,100668.28
2022-12-26T20:07:43.276Z,100673.38
2022-12-26T20:10:09.922Z,100681.66
2022-12-26T20:12:36.763Z,100691.41
2022-12-26T20:15:08.929Z,100675.75
2022-12-26T20:17:38.704Z,100670.56
2022-12-26T20:20:07.745Z,100670.88
2022-12-26T20:22:34.393Z,100670.00
2022-12-26T20:25:04.332Z,100666.75
2022-12-26T20:27:31.071Z,100656.75
2022-12-26T20:29:59.936Z,100668.28
2022-12-26T20:32:29.528Z,100671.25
2022-12-26T20:34:56.358Z,100656.91
2022-12-26T20:37:23.002Z,100658.69
2022-12-26T20:39:49.569Z,100655.25
2022-12-26T20:42:19.653Z,100640.00
2022-12-26T20:44:46.327Z,100620.31
2022-12-26T20:47:15.692Z,100610.56
2022-12-26T20:49:48.167Z,100630.25
2022-12-26T20:52:16.618Z,100627.88
2022-12-26T20:54:48.879Z,100625.16
2022-12-26T20:57:20.926Z,100627.38
2022-12-26T20:59:47.777Z,100613.69
2022-12-26T21:02:14.815Z,100605.16
2022-12-26T21:04:47.092Z,100604.13
2022-12-26T21:07:13.753Z,100607.59
2022-12-26T21:09:45.940Z,100619.84
2022-12-26T21:12:15.753Z,100618.50
2022-12-26T21:14:44.809Z,100639.84
2022-12-26T21:17:18.160Z,100653.59
2022-12-26T21:19:45.079Z,100648.47
2022-12-26T21:22:11.685Z,100653.22
2022-12-26T21:24:38.460Z,100655.97
2022-12-26T21:27:05.081Z,100662.31
2022-12-26T21:29:32.941Z,100670.81
2022-12-26T21:32:02.082Z,100662.44
2022-12-26T21:34:31.901Z,100659.50
2022-12-26T21:37:17.213Z,100655.66
2022-12-26T21:39:43.930Z,100652.56
2022-12-26T21:42:13.211Z,100652.84
2022-12-26T21:44:42.353Z,100634.97
2022-12-26T21:47:09.028Z,100636.72
2022-12-26T21:49:36.319Z,100639.31
2022-12-26T21:52:03.681Z,100649.00
2022-12-26T21:54:51.369Z,100637.84
2022-12-26T21:57:18.462Z,100637.91
2022-12-26T21:59:57.645Z,100638.28
2022-12-26T22:02:50.714Z,100635.56
2022-12-26T22:05:20.909Z,100627.94
2022-12-26T22:07:47.728Z,100624.59
2022-12-26T22:10:34.342Z,100623.25
2022-12-26T22:13:03.740Z,100635.59
2022-12-26T22:15:51.139Z,100637.25
2022-12-26T22:18:20.253Z,100651.53
2022-12-26T22:20:49.438Z,100644.56
2022-12-26T22:23:16.181Z,100642.06
2022-12-26T22:25:42.846Z,100635.44
2022-12-26T22:28:12.106Z,100634.13
2022-12-26T22:30:38.677Z,100638.00
2022-12-26T22:33:11.201Z,100638.22
2022-12-26T22:35:38.220Z,100637.63
2022-12-26T22:38:04.867Z,100632.63
2022-12-26T22:40:34.358Z,100631.22
2022-12-26T22:43:03.792Z,100629.97
2022-12-26T22:45:30.423Z,100631.16
2022-12-26T22:47:59.584Z,100627.31
2022-12-26T22:50:29.389Z,100613.56
2022-12-26T22:52:58.864Z,100608.69
2022-12-26T22:55:25.560Z,100611.84
2022-12-26T22:58:17.375Z,100613.06
2022-12-26T23:00:44.330Z,100628.19
2022-12-26T23:03:11.126Z,100618.97
2022-12-26T23:05:38.269Z,100646.66
2022-12-26T23:08:05.381Z,100664.81
2022-12-26T23:10:32.262Z,100655.81
2022-12-26T23:13:03.650Z,100657.50
2022-12-26T23:15:35.658Z,100669.94
2022-12-26T23:18:24.093Z,100679.75
2022-12-26T23:21:09.749Z,100685.41
2022-12-26T23:23:36.430Z,100681.72
2022-12-26T23:26:05.289Z,100667.25
2022-12-26T23:28:50.922Z,100664.66
2022-12-26T23:31:17.564Z,100686.44
2022-12-26T23:33:44.315Z,100670.25
2022-12-26T23:36:11.046Z,100666.09
2022-12-26T23:38:37.777Z,100666.09
2022-12-26T23:41:07.819Z,100664.63
2022-12-26T23:43:34.535Z,100664.91
2022-12-26T23:46:01.264Z,100666.69
2022-12-26T23:48:32.937Z,100670.16
2022-12-26T23:51:06.110Z,100670.69
2022-12-26T23:53:35.575Z,100671.72
2022-12-26T23:56:02.115Z,100676.84
2022-12-26T23:58:32.063Z,100680.84
